JAL158 RJSM-RJTT
Flight info
| Callsign | JAL158 |
|---|---|
| Flight time | N/A |
| Altitude | 36000 |
| Route | HPE Y10 GODIN |
| Aircraft | B738/M-SDE2E3FGHIRWXY/LB1 |
Departure
| Time | N/A |
|---|---|
| Airport | Misawa Airport / Misawa Air Base (RJSM) |
Arrival
| Time | 2026-05-06 13:06 |
|---|---|
| Airport | Tokyo Haneda International Airport (RJTT) |
| Time | Latitude | Longitude | Altitude | Speed | Heading |
|---|---|---|---|---|---|
| 2026-05-06 11:49 | 39.54965 | 141.13610 | 31642 ft | 432 kts | 190° |
| 2026-05-06 11:49 | 39.51962 | 141.13545 | 32078 ft | 429 kts | 190° |
| 2026-05-06 11:49 | 39.48969 | 141.13479 | 32418 ft | 428 kts | 191° |
| 2026-05-06 11:50 | 39.45996 | 141.13413 | 32808 ft | 426 kts | 191° |
| 2026-05-06 11:50 | 39.43063 | 141.13170 | 33175 ft | 416 kts | 198° |
| 2026-05-06 11:50 | 39.40298 | 141.12436 | 33575 ft | 407 kts | 202° |
| 2026-05-06 11:50 | 39.37534 | 141.11615 | 33910 ft | 406 kts | 203° |
| 2026-05-06 11:51 | 39.34787 | 141.10780 | 34278 ft | 403 kts | 203° |
| 2026-05-06 11:51 | 39.32053 | 141.09944 | 34613 ft | 402 kts | 203° |
| 2026-05-06 11:51 | 39.29328 | 141.09116 | 34948 ft | 401 kts | 203° |
| 2026-05-06 11:51 | 39.26609 | 141.08297 | 35287 ft | 399 kts | 203° |
| 2026-05-06 11:52 | 39.23943 | 141.07499 | 35547 ft | 399 kts | 204° |
| 2026-05-06 11:52 | 39.21198 | 141.06674 | 35835 ft | 398 kts | 204° |
| 2026-05-06 11:52 | 39.18531 | 141.05872 | 36084 ft | 399 kts | 204° |
| 2026-05-06 11:52 | 39.15808 | 141.05048 | 36084 ft | 402 kts | 204° |
| 2026-05-06 11:53 | 39.10358 | 141.03417 | 36076 ft | 399 kts | 204° |
| 2026-05-06 11:53 | 39.04990 | 141.01815 | 36055 ft | 397 kts | 204° |
| 2026-05-06 11:54 | 38.99625 | 141.00204 | 36113 ft | 395 kts | 204° |
| 2026-05-06 11:54 | 38.94276 | 140.98606 | 36105 ft | 394 kts | 204° |
| 2026-05-06 11:55 | 38.88944 | 140.97021 | 36085 ft | 392 kts | 204° |
| 2026-05-06 11:55 | 38.83629 | 140.95434 | 36108 ft | 392 kts | 204° |
| 2026-05-06 11:56 | 38.78306 | 140.93852 | 36109 ft | 392 kts | 204° |
| 2026-05-06 11:56 | 38.73016 | 140.92283 | 36106 ft | 391 kts | 204° |
| 2026-05-06 11:57 | 38.67698 | 140.90706 | 36110 ft | 390 kts | 204° |
| 2026-05-06 11:57 | 38.62387 | 140.89132 | 36121 ft | 391 kts | 204° |
| 2026-05-06 11:58 | 38.57090 | 140.87571 | 36118 ft | 391 kts | 205° |
| 2026-05-06 11:58 | 38.51811 | 140.86014 | 36114 ft | 390 kts | 205° |
| 2026-05-06 11:59 | 38.46524 | 140.84456 | 36122 ft | 389 kts | 205° |
| 2026-05-06 11:59 | 38.41262 | 140.82909 | 36143 ft | 388 kts | 205° |
| 2026-05-06 12:00 | 38.36013 | 140.81369 | 36145 ft | 388 kts | 205° |
| 2026-05-06 12:00 | 38.30747 | 140.79823 | 36112 ft | 388 kts | 205° |
| 2026-05-06 12:01 | 38.25484 | 140.78283 | 36121 ft | 387 kts | 205° |
| 2026-05-06 12:01 | 38.20273 | 140.76761 | 36121 ft | 385 kts | 205° |
| 2026-05-06 12:02 | 38.15028 | 140.75228 | 36131 ft | 384 kts | 205° |
| 2026-05-06 12:02 | 38.09840 | 140.73716 | 36151 ft | 383 kts | 205° |
| 2026-05-06 12:03 | 38.04630 | 140.72199 | 36125 ft | 383 kts | 205° |
| 2026-05-06 12:03 | 37.99461 | 140.70696 | 36116 ft | 383 kts | 205° |
| 2026-05-06 12:04 | 37.94265 | 140.69191 | 36119 ft | 381 kts | 206° |
| 2026-05-06 12:04 | 37.89167 | 140.67726 | 36119 ft | 371 kts | 206° |
| 2026-05-06 12:05 | 37.84120 | 140.66247 | 36198 ft | 375 kts | 206° |
| 2026-05-06 12:05 | 37.78999 | 140.64762 | 36184 ft | 378 kts | 205° |
| 2026-05-06 12:06 | 37.73855 | 140.63287 | 36116 ft | 380 kts | 206° |
| 2026-05-06 12:06 | 37.68692 | 140.61800 | 36151 ft | 379 kts | 206° |
| 2026-05-06 12:07 | 37.63528 | 140.60309 | 36172 ft | 380 kts | 206° |
| 2026-05-06 12:07 | 37.58372 | 140.58826 | 36161 ft | 381 kts | 206° |
| 2026-05-06 12:08 | 37.55884 | 140.57819 | 35586 ft | 365 kts | 217° |
| 2026-05-06 12:08 | 37.53750 | 140.56185 | 35161 ft | 352 kts | 224° |
| 2026-05-06 12:08 | 37.51912 | 140.54289 | 34797 ft | 342 kts | 229° |
| 2026-05-06 12:08 | 37.50252 | 140.52184 | 34475 ft | 332 kts | 236° |
| 2026-05-06 12:09 | 37.49168 | 140.49682 | 34279 ft | 320 kts | 249° |
| 2026-05-06 12:09 | 37.48580 | 140.47002 | 34107 ft | 314 kts | 255° |
| 2026-05-06 12:09 | 37.48110 | 140.41685 | 34013 ft | 296 kts | 260° |
| 2026-05-06 12:10 | 37.47835 | 140.39151 | 33535 ft | 291 kts | 246° |
| 2026-05-06 12:10 | 37.46744 | 140.37055 | 33055 ft | 296 kts | 228° |
| 2026-05-06 12:10 | 37.44892 | 140.35751 | 32536 ft | 323 kts | 206° |
| 2026-05-06 12:10 | 37.42599 | 140.35349 | 31978 ft | 340 kts | 198° |
| 2026-05-06 12:11 | 37.40181 | 140.35258 | 31314 ft | 354 kts | 193° |
| 2026-05-06 12:11 | 37.37684 | 140.35308 | 30609 ft | 362 kts | 192° |
| 2026-05-06 12:11 | 37.35149 | 140.35329 | 30024 ft | 363 kts | 193° |
| 2026-05-06 12:11 | 37.32630 | 140.35259 | 29532 ft | 361 kts | 193° |
| 2026-05-06 12:12 | 37.30147 | 140.35132 | 29094 ft | 359 kts | 194° |
| 2026-05-06 12:12 | 37.27652 | 140.35008 | 28653 ft | 358 kts | 193° |
| 2026-05-06 12:12 | 37.25152 | 140.34906 | 28211 ft | 358 kts | 192° |
| 2026-05-06 12:12 | 37.22655 | 140.34826 | 27766 ft | 358 kts | 192° |
| 2026-05-06 12:13 | 37.20184 | 140.34752 | 27336 ft | 357 kts | 192° |
| 2026-05-06 12:13 | 37.17698 | 140.34669 | 26895 ft | 357 kts | 191° |
| 2026-05-06 12:13 | 37.15215 | 140.34576 | 26442 ft | 357 kts | 191° |
| 2026-05-06 12:13 | 37.12724 | 140.34480 | 25987 ft | 357 kts | 191° |
| 2026-05-06 12:14 | 37.10236 | 140.34387 | 25526 ft | 357 kts | 190° |
| 2026-05-06 12:14 | 37.07740 | 140.34298 | 25068 ft | 357 kts | 189° |
| 2026-05-06 12:14 | 37.05249 | 140.34210 | 24598 ft | 358 kts | 189° |
| 2026-05-06 12:14 | 37.02783 | 140.34122 | 24127 ft | 359 kts | 188° |
| 2026-05-06 12:15 | 37.00280 | 140.34032 | 23650 ft | 359 kts | 188° |
| 2026-05-06 12:15 | 36.97781 | 140.33942 | 23131 ft | 360 kts | 188° |
| 2026-05-06 12:15 | 36.95271 | 140.33853 | 22640 ft | 360 kts | 188° |
| 2026-05-06 12:15 | 36.92762 | 140.33764 | 22196 ft | 359 kts | 188° |
| 2026-05-06 12:16 | 36.90287 | 140.33675 | 21727 ft | 360 kts | 188° |
| 2026-05-06 12:16 | 36.87781 | 140.33585 | 21231 ft | 361 kts | 188° |
| 2026-05-06 12:16 | 36.85257 | 140.33494 | 20723 ft | 362 kts | 187° |
| 2026-05-06 12:16 | 36.82724 | 140.33402 | 20208 ft | 364 kts | 187° |
| 2026-05-06 12:17 | 36.80212 | 140.33314 | 19701 ft | 365 kts | 187° |
| 2026-05-06 12:17 | 36.77670 | 140.33224 | 19176 ft | 366 kts | 187° |
| 2026-05-06 12:17 | 36.75122 | 140.33133 | 18639 ft | 366 kts | 187° |
| 2026-05-06 12:17 | 36.72563 | 140.33042 | 18125 ft | 367 kts | 186° |
| 2026-05-06 12:18 | 36.70039 | 140.32951 | 17590 ft | 368 kts | 186° |
| 2026-05-06 12:18 | 36.67479 | 140.32860 | 17051 ft | 368 kts | 186° |
| 2026-05-06 12:18 | 36.64910 | 140.32770 | 16506 ft | 369 kts | 186° |
| 2026-05-06 12:18 | 36.62364 | 140.32511 | 16185 ft | 360 kts | 193° |
| 2026-05-06 12:19 | 36.59914 | 140.32045 | 16130 ft | 350 kts | 193° |
| 2026-05-06 12:19 | 36.57501 | 140.31590 | 15760 ft | 346 kts | 193° |
| 2026-05-06 12:19 | 36.55148 | 140.31128 | 15514 ft | 338 kts | 193° |
| 2026-05-06 12:19 | 36.52843 | 140.30661 | 15301 ft | 330 kts | 194° |
| 2026-05-06 12:20 | 36.50633 | 140.30211 | 15112 ft | 321 kts | 194° |
| 2026-05-06 12:20 | 36.48455 | 140.29770 | 14939 ft | 314 kts | 194° |
| 2026-05-06 12:20 | 36.46308 | 140.29340 | 14759 ft | 310 kts | 194° |
| 2026-05-06 12:20 | 36.44183 | 140.28916 | 14586 ft | 307 kts | 194° |
| 2026-05-06 12:21 | 36.42076 | 140.28496 | 14417 ft | 306 kts | 194° |
| 2026-05-06 12:21 | 36.39977 | 140.28077 | 14261 ft | 303 kts | 194° |
| 2026-05-06 12:21 | 36.37894 | 140.27660 | 14073 ft | 302 kts | 194° |
| 2026-05-06 12:21 | 36.35823 | 140.27246 | 13901 ft | 301 kts | 194° |
| 2026-05-06 12:22 | 36.33787 | 140.26841 | 13738 ft | 299 kts | 194° |
| 2026-05-06 12:22 | 36.31736 | 140.26433 | 13565 ft | 297 kts | 194° |
| 2026-05-06 12:22 | 36.29678 | 140.26021 | 13321 ft | 300 kts | 194° |
| 2026-05-06 12:22 | 36.27611 | 140.25606 | 13109 ft | 299 kts | 194° |
| 2026-05-06 12:23 | 36.25585 | 140.25205 | 12935 ft | 299 kts | 193° |
| 2026-05-06 12:23 | 36.23525 | 140.24798 | 12748 ft | 298 kts | 193° |
| 2026-05-06 12:23 | 36.21479 | 140.24392 | 12591 ft | 297 kts | 194° |
| 2026-05-06 12:23 | 36.20126 | 140.24122 | 12478 ft | 296 kts | 194° |
| 2026-05-06 12:24 | 36.18088 | 140.23716 | 12306 ft | 296 kts | 194° |
| 2026-05-06 12:24 | 36.16076 | 140.23316 | 12146 ft | 296 kts | 194° |
| 2026-05-06 12:24 | 36.14034 | 140.22911 | 11971 ft | 294 kts | 193° |
| 2026-05-06 12:24 | 36.12022 | 140.22513 | 11809 ft | 294 kts | 193° |
| 2026-05-06 12:25 | 36.10004 | 140.22112 | 11648 ft | 293 kts | 193° |
| 2026-05-06 12:25 | 36.07990 | 140.21714 | 11489 ft | 292 kts | 193° |
| 2026-05-06 12:25 | 36.05978 | 140.21316 | 11318 ft | 291 kts | 193° |
| 2026-05-06 12:25 | 36.04000 | 140.20922 | 11156 ft | 290 kts | 193° |
| 2026-05-06 12:26 | 36.01997 | 140.20573 | 11026 ft | 291 kts | 187° |
| 2026-05-06 12:26 | 35.99969 | 140.20517 | 11009 ft | 292 kts | 185° |
| 2026-05-06 12:26 | 35.97936 | 140.20477 | 11010 ft | 292 kts | 185° |
| 2026-05-06 12:26 | 35.95894 | 140.20442 | 11013 ft | 293 kts | 185° |
| 2026-05-06 12:27 | 35.93878 | 140.20410 | 11012 ft | 293 kts | 185° |
| 2026-05-06 12:27 | 35.91830 | 140.20377 | 11013 ft | 294 kts | 185° |
| 2026-05-06 12:27 | 35.89797 | 140.20344 | 11006 ft | 289 kts | 185° |
| 2026-05-06 12:27 | 35.87807 | 140.20313 | 11001 ft | 283 kts | 185° |
| 2026-05-06 12:28 | 35.85856 | 140.20280 | 11001 ft | 277 kts | 185° |
| 2026-05-06 12:28 | 35.83936 | 140.20248 | 11002 ft | 275 kts | 185° |
| 2026-05-06 12:28 | 35.82045 | 140.20215 | 11004 ft | 273 kts | 185° |
| 2026-05-06 12:28 | 35.80137 | 140.20182 | 11003 ft | 272 kts | 185° |
| 2026-05-06 12:29 | 35.78240 | 140.20150 | 11008 ft | 272 kts | 185° |
| 2026-05-06 12:29 | 35.76338 | 140.20182 | 11011 ft | 273 kts | 182° |
| 2026-05-06 12:29 | 35.74458 | 140.20286 | 11013 ft | 273 kts | 181° |
| 2026-05-06 12:29 | 35.72547 | 140.20408 | 11010 ft | 274 kts | 182° |
| 2026-05-06 12:30 | 35.70642 | 140.20513 | 11009 ft | 273 kts | 182° |
| 2026-05-06 12:30 | 35.68738 | 140.20566 | 10984 ft | 275 kts | 188° |
| 2026-05-06 12:30 | 35.66730 | 140.20215 | 10429 ft | 303 kts | 194° |
| 2026-05-06 12:30 | 35.64692 | 140.19699 | 10130 ft | 299 kts | 195° |
| 2026-05-06 12:31 | 35.62698 | 140.19130 | 9813 ft | 292 kts | 196° |
| 2026-05-06 12:31 | 35.60752 | 140.18577 | 9727 ft | 279 kts | 195° |
| 2026-05-06 12:31 | 35.58890 | 140.18072 | 9689 ft | 269 kts | 195° |
| 2026-05-06 12:31 | 35.57086 | 140.17600 | 9664 ft | 264 kts | 195° |
| 2026-05-06 12:32 | 35.55287 | 140.17128 | 9603 ft | 259 kts | 195° |
| 2026-05-06 12:32 | 35.53556 | 140.16675 | 9506 ft | 249 kts | 195° |
| 2026-05-06 12:32 | 35.51882 | 140.16234 | 9087 ft | 247 kts | 195° |
| 2026-05-06 12:32 | 35.50199 | 140.15789 | 8707 ft | 244 kts | 194° |
| 2026-05-06 12:33 | 35.48548 | 140.15354 | 8342 ft | 240 kts | 194° |
| 2026-05-06 12:33 | 35.46917 | 140.14922 | 8020 ft | 237 kts | 194° |
| 2026-05-06 12:33 | 35.45332 | 140.14501 | 7779 ft | 231 kts | 194° |
| 2026-05-06 12:33 | 35.43770 | 140.14091 | 7397 ft | 228 kts | 194° |
| 2026-05-06 12:34 | 35.42232 | 140.13686 | 7037 ft | 224 kts | 194° |
| 2026-05-06 12:34 | 35.40713 | 140.13284 | 6671 ft | 221 kts | 194° |
| 2026-05-06 12:34 | 35.39240 | 140.12894 | 6295 ft | 219 kts | 194° |
| 2026-05-06 12:34 | 35.37752 | 140.12506 | 5890 ft | 216 kts | 194° |
| 2026-05-06 12:35 | 35.36287 | 140.12124 | 5497 ft | 214 kts | 194° |
| 2026-05-06 12:35 | 35.34846 | 140.11744 | 5136 ft | 211 kts | 194° |
| 2026-05-06 12:35 | 35.33472 | 140.11380 | 4780 ft | 210 kts | 193° |
| 2026-05-06 12:35 | 35.32008 | 140.10993 | 4412 ft | 208 kts | 193° |
| 2026-05-06 12:36 | 35.30622 | 140.10522 | 4064 ft | 207 kts | 205° |
| 2026-05-06 12:36 | 35.29436 | 140.09587 | 4049 ft | 209 kts | 221° |
| 2026-05-06 12:36 | 35.28523 | 140.08207 | 4044 ft | 209 kts | 238° |
| 2026-05-06 12:36 | 35.27853 | 140.06806 | 4023 ft | 212 kts | 237° |
| 2026-05-06 12:37 | 35.27130 | 140.05254 | 3997 ft | 207 kts | 239° |
| 2026-05-06 12:37 | 35.26791 | 140.03637 | 3991 ft | 200 kts | 264° |
| 2026-05-06 12:37 | 35.27101 | 140.01964 | 3982 ft | 198 kts | 294° |
| 2026-05-06 12:37 | 35.27758 | 140.00529 | 3996 ft | 197 kts | 295° |
| 2026-05-06 12:38 | 35.28423 | 139.99136 | 3978 ft | 185 kts | 295° |
| 2026-05-06 12:38 | 35.29274 | 139.97983 | 4007 ft | 187 kts | 324° |
| 2026-05-06 12:38 | 35.30372 | 139.97184 | 4014 ft | 182 kts | 327° |
| 2026-05-06 12:38 | 35.31483 | 139.96407 | 4016 ft | 180 kts | 326° |
| 2026-05-06 12:39 | 35.32547 | 139.95660 | 4022 ft | 177 kts | 326° |
| 2026-05-06 12:39 | 35.33593 | 139.94924 | 4001 ft | 173 kts | 326° |
| 2026-05-06 12:39 | 35.34647 | 139.94180 | 4001 ft | 175 kts | 326° |
| 2026-05-06 12:39 | 35.35693 | 139.93443 | 4006 ft | 175 kts | 326° |
| 2026-05-06 12:40 | 35.36752 | 139.92696 | 3926 ft | 175 kts | 326° |
| 2026-05-06 12:40 | 35.37811 | 139.91948 | 3714 ft | 174 kts | 326° |
| 2026-05-06 12:40 | 35.38841 | 139.91220 | 3479 ft | 172 kts | 326° |
| 2026-05-06 12:40 | 35.39881 | 139.90485 | 3248 ft | 171 kts | 326° |
| 2026-05-06 12:41 | 35.40912 | 139.89758 | 3021 ft | 172 kts | 326° |
| 2026-05-06 12:41 | 35.41951 | 139.89024 | 2787 ft | 170 kts | 327° |
| 2026-05-06 12:41 | 35.42967 | 139.88306 | 2570 ft | 168 kts | 327° |
| 2026-05-06 12:41 | 35.43983 | 139.87588 | 2343 ft | 167 kts | 328° |
| 2026-05-06 12:42 | 35.44990 | 139.86875 | 2126 ft | 167 kts | 328° |
| 2026-05-06 12:42 | 35.45989 | 139.86168 | 1891 ft | 164 kts | 328° |
| 2026-05-06 12:42 | 35.46977 | 139.85469 | 1694 ft | 164 kts | 329° |
| 2026-05-06 12:42 | 35.47959 | 139.84774 | 1467 ft | 162 kts | 329° |
| 2026-05-06 12:43 | 35.48934 | 139.84083 | 1257 ft | 160 kts | 330° |
| 2026-05-06 12:43 | 35.49892 | 139.83405 | 1037 ft | 159 kts | 329° |
| 2026-05-06 12:43 | 35.50840 | 139.82734 | 829 ft | 159 kts | 330° |
| 2026-05-06 12:43 | 35.51795 | 139.82057 | 626 ft | 158 kts | 329° |
| 2026-05-06 12:44 | 35.52744 | 139.81385 | 403 ft | 156 kts | 330° |
| 2026-05-06 12:44 | 35.53627 | 139.80768 | 408 ft | 138 kts | 330° |
| 2026-05-06 12:44 | 35.54453 | 139.80230 | 414 ft | 129 kts | 330° |
| 2026-05-06 12:44 | 35.55254 | 139.79694 | 257 ft | 132 kts | 332° |
| 2026-05-06 12:45 | 35.56060 | 139.79193 | 715 ft | 123 kts | 331° |
| 2026-05-06 12:45 | 35.56852 | 139.78609 | 1164 ft | 149 kts | 327° |
| 2026-05-06 12:45 | 35.58617 | 139.77348 | 2569 ft | 165 kts | 347° |
| 2026-05-06 12:46 | 35.59766 | 139.77449 | 3213 ft | 168 kts | 7° |
| 2026-05-06 12:46 | 35.60982 | 139.77627 | 3684 ft | 187 kts | 5° |
| 2026-05-06 12:46 | 35.62387 | 139.77817 | 4022 ft | 221 kts | 5° |
| 2026-05-06 12:46 | 35.63956 | 139.78039 | 4028 ft | 226 kts | 5° |
| 2026-05-06 12:47 | 35.65540 | 139.78518 | 4000 ft | 238 kts | 29° |
| 2026-05-06 12:47 | 35.66813 | 139.79793 | 4034 ft | 236 kts | 52° |
| 2026-05-06 12:47 | 35.67688 | 139.81462 | 4017 ft | 233 kts | 67° |
| 2026-05-06 12:47 | 35.68280 | 139.83309 | 4025 ft | 230 kts | 76° |
| 2026-05-06 12:48 | 35.68678 | 139.85224 | 4027 ft | 229 kts | 82° |
| 2026-05-06 12:48 | 35.68951 | 139.87161 | 4020 ft | 228 kts | 85° |
| 2026-05-06 12:48 | 35.69145 | 139.89100 | 4018 ft | 228 kts | 88° |
| 2026-05-06 12:48 | 35.69289 | 139.91025 | 4020 ft | 228 kts | 89° |
| 2026-05-06 12:49 | 35.69402 | 139.92966 | 4028 ft | 228 kts | 90° |
| 2026-05-06 12:49 | 35.69499 | 139.94908 | 4000 ft | 227 kts | 90° |
| 2026-05-06 12:49 | 35.69581 | 139.96855 | 4008 ft | 228 kts | 91° |
| 2026-05-06 12:49 | 35.69643 | 139.98808 | 4001 ft | 226 kts | 97° |
| 2026-05-06 12:50 | 35.69278 | 140.00648 | 3995 ft | 221 kts | 118° |
| 2026-05-06 12:50 | 35.68514 | 140.02253 | 3989 ft | 216 kts | 131° |
| 2026-05-06 12:50 | 35.67554 | 140.03626 | 3995 ft | 216 kts | 139° |
| 2026-05-06 12:50 | 35.66449 | 140.04885 | 4000 ft | 213 kts | 143° |
| 2026-05-06 12:51 | 35.65314 | 140.06006 | 4007 ft | 211 kts | 147° |
| 2026-05-06 12:51 | 35.64129 | 140.07071 | 4021 ft | 211 kts | 148° |
| 2026-05-06 12:51 | 35.62916 | 140.08097 | 4020 ft | 211 kts | 149° |
| 2026-05-06 12:51 | 35.61705 | 140.09083 | 4022 ft | 210 kts | 150° |
| 2026-05-06 12:52 | 35.60470 | 140.10062 | 4025 ft | 209 kts | 151° |
| 2026-05-06 12:52 | 35.59239 | 140.11021 | 4031 ft | 210 kts | 151° |
| 2026-05-06 12:52 | 35.57998 | 140.11975 | 4024 ft | 209 kts | 151° |
| 2026-05-06 12:52 | 35.56752 | 140.12927 | 4022 ft | 210 kts | 151° |
| 2026-05-06 12:53 | 35.55524 | 140.13861 | 4024 ft | 210 kts | 152° |
| 2026-05-06 12:53 | 35.54238 | 140.14734 | 3975 ft | 210 kts | 167° |
| 2026-05-06 12:53 | 35.52824 | 140.14788 | 4037 ft | 208 kts | 187° |
| 2026-05-06 12:53 | 35.51385 | 140.14547 | 4005 ft | 208 kts | 190° |
| 2026-05-06 12:54 | 35.49973 | 140.14256 | 3999 ft | 205 kts | 190° |
| 2026-05-06 12:54 | 35.48612 | 140.13975 | 4005 ft | 205 kts | 190° |
| 2026-05-06 12:54 | 35.47187 | 140.13693 | 4019 ft | 205 kts | 189° |
| 2026-05-06 12:54 | 35.45767 | 140.13421 | 4017 ft | 205 kts | 189° |
| 2026-05-06 12:55 | 35.44357 | 140.13153 | 4007 ft | 205 kts | 189° |
| 2026-05-06 12:55 | 35.42961 | 140.12891 | 4006 ft | 205 kts | 189° |
| 2026-05-06 12:55 | 35.41553 | 140.12626 | 4020 ft | 204 kts | 189° |
| 2026-05-06 12:55 | 35.40141 | 140.12358 | 4024 ft | 204 kts | 189° |
| 2026-05-06 12:56 | 35.38733 | 140.12092 | 4026 ft | 204 kts | 189° |
| 2026-05-06 12:56 | 35.37329 | 140.11826 | 4020 ft | 204 kts | 189° |
| 2026-05-06 12:56 | 35.35942 | 140.11563 | 4029 ft | 204 kts | 189° |
| 2026-05-06 12:56 | 35.34526 | 140.11292 | 4025 ft | 207 kts | 189° |
| 2026-05-06 12:57 | 35.33102 | 140.11023 | 4001 ft | 207 kts | 189° |
| 2026-05-06 12:57 | 35.31682 | 140.10755 | 4001 ft | 207 kts | 189° |
| 2026-05-06 12:57 | 35.30299 | 140.10379 | 4002 ft | 206 kts | 203° |
| 2026-05-06 12:57 | 35.29136 | 140.09368 | 4003 ft | 209 kts | 228° |
| 2026-05-06 12:58 | 35.28346 | 140.07874 | 4025 ft | 211 kts | 236° |
| 2026-05-06 12:58 | 35.27613 | 140.06324 | 4002 ft | 210 kts | 237° |
| 2026-05-06 12:58 | 35.26937 | 140.04769 | 3967 ft | 212 kts | 248° |
| 2026-05-06 12:58 | 35.26795 | 140.02968 | 3971 ft | 223 kts | 278° |
| 2026-05-06 12:59 | 35.27398 | 140.01216 | 4020 ft | 228 kts | 294° |
| 2026-05-06 12:59 | 35.28164 | 139.99576 | 4091 ft | 216 kts | 296° |
| 2026-05-06 12:59 | 35.29102 | 139.98175 | 4048 ft | 207 kts | 315° |
| 2026-05-06 12:59 | 35.30276 | 139.97263 | 4043 ft | 198 kts | 327° |
| 2026-05-06 13:00 | 35.31456 | 139.96434 | 4024 ft | 189 kts | 326° |
| 2026-05-06 13:00 | 35.32589 | 139.95633 | 4020 ft | 185 kts | 326° |
| 2026-05-06 13:00 | 35.33644 | 139.94890 | 4018 ft | 179 kts | 326° |
| 2026-05-06 13:00 | 35.34733 | 139.94123 | 4002 ft | 173 kts | 326° |
| 2026-05-06 13:01 | 35.35779 | 139.93383 | 4003 ft | 172 kts | 326° |
| 2026-05-06 13:01 | 35.36810 | 139.92655 | 3982 ft | 174 kts | 326° |
| 2026-05-06 13:01 | 35.37873 | 139.91903 | 3695 ft | 170 kts | 326° |
| 2026-05-06 13:01 | 35.38895 | 139.91182 | 3468 ft | 170 kts | 326° |
| 2026-05-06 13:02 | 35.39914 | 139.90462 | 3251 ft | 168 kts | 326° |
| 2026-05-06 13:02 | 35.40936 | 139.89739 | 3026 ft | 170 kts | 325° |
| 2026-05-06 13:02 | 35.41937 | 139.89032 | 2792 ft | 167 kts | 327° |
| 2026-05-06 13:02 | 35.42944 | 139.88321 | 2573 ft | 165 kts | 327° |
| 2026-05-06 13:03 | 35.43930 | 139.87623 | 2354 ft | 165 kts | 328° |
| 2026-05-06 13:03 | 35.44921 | 139.86922 | 2136 ft | 163 kts | 328° |
| 2026-05-06 13:03 | 35.45900 | 139.86229 | 1925 ft | 162 kts | 328° |
| 2026-05-06 13:03 | 35.46873 | 139.85540 | 1706 ft | 161 kts | 329° |
| 2026-05-06 13:04 | 35.47840 | 139.84856 | 1480 ft | 159 kts | 329° |
| 2026-05-06 13:04 | 35.48789 | 139.84185 | 1288 ft | 158 kts | 329° |
| 2026-05-06 13:04 | 35.49734 | 139.83517 | 1076 ft | 156 kts | 329° |
| 2026-05-06 13:04 | 35.50672 | 139.82852 | 850 ft | 156 kts | 329° |
| 2026-05-06 13:05 | 35.51604 | 139.82191 | 656 ft | 155 kts | 329° |
| 2026-05-06 13:05 | 35.52528 | 139.81531 | 468 ft | 151 kts | 331° |
| 2026-05-06 13:05 | 35.53445 | 139.80901 | 287 ft | 150 kts | 330° |
| 2026-05-06 13:05 | 35.54342 | 139.80255 | 55 ft | 150 kts | 329° |
| 2026-05-06 13:06 | 35.55124 | 139.79691 | 28 ft | 99 kts | 330° |
| 2026-05-06 13:06 | 35.55524 | 139.79410 | 26 ft | 33 kts | 331° |
| 2026-05-06 13:06 | 35.55617 | 139.79339 | 27 ft | 19 kts | 324° |
| 2026-05-06 13:06 | 35.55686 | 139.79273 | 28 ft | 19 kts | 316° |
| 2026-05-06 13:07 | 35.55791 | 139.79099 | 23 ft | 19 kts | 303° |
| 2026-05-06 13:07 | 35.55858 | 139.78962 | 23 ft | 19 kts | 299° |
| 2026-05-06 13:07 | 35.55912 | 139.78882 | 25 ft | 18 kts | 325° |
| 2026-05-06 13:07 | 35.56016 | 139.78807 | 24 ft | 17 kts | 330° |
| 2026-05-06 13:08 | 35.56126 | 139.78729 | 24 ft | 21 kts | 330° |
| 2026-05-06 13:08 | 35.56263 | 139.78632 | 25 ft | 23 kts | 330° |
| 2026-05-06 13:08 | 35.56321 | 139.78590 | 24 ft | 4 kts | 329° |
| 2026-05-06 13:08 | 35.56344 | 139.78574 | 26 ft | 2 kts | 330° |
| 2026-05-06 13:09 | 35.56371 | 139.78552 | 26 ft | 9 kts | 317° |
| 2026-05-06 13:09 | 35.56381 | 139.78473 | 27 ft | 15 kts | 246° |
| 2026-05-06 13:09 | 35.56293 | 139.78285 | 24 ft | 31 kts | 239° |
| 2026-05-06 13:09 | 35.56188 | 139.78062 | 27 ft | 29 kts | 240° |
| 2026-05-06 13:10 | 35.56089 | 139.77854 | 26 ft | 26 kts | 240° |
| 2026-05-06 13:10 | 35.56009 | 139.77683 | 24 ft | 20 kts | 240° |
| 2026-05-06 13:10 | 35.55950 | 139.77561 | 25 ft | 12 kts | 240° |
| 2026-05-06 13:10 | 35.55916 | 139.77487 | 24 ft | 5 kts | 240° |
| 2026-05-06 13:11 | 35.55888 | 139.77435 | 22 ft | 9 kts | 229° |
| 2026-05-06 13:11 | 35.55822 | 139.77418 | 21 ft | 12 kts | 160° |
| 2026-05-06 13:11 | 35.55740 | 139.77474 | 21 ft | 14 kts | 150° |
| 2026-05-06 13:11 | 35.55624 | 139.77556 | 22 ft | 20 kts | 150° |
| 2026-05-06 13:12 | 35.55510 | 139.77637 | 21 ft | 18 kts | 150° |
| 2026-05-06 13:12 | 35.55387 | 139.77725 | 22 ft | 22 kts | 150° |
| 2026-05-06 13:12 | 35.55267 | 139.77809 | 22 ft | 18 kts | 150° |
| 2026-05-06 13:12 | 35.55165 | 139.77881 | 24 ft | 16 kts | 150° |
| 2026-05-06 13:13 | 35.55070 | 139.77950 | 22 ft | 15 kts | 139° |
| 2026-05-06 13:13 | 35.55083 | 139.78052 | 24 ft | 9 kts | 58° |
| 2026-05-06 13:13 | 35.55093 | 139.78071 | 23 ft | 0 kts | 58° |